createdAt,value
2023-04-07T00:02:22.523Z,98661.56
2023-04-07T00:04:49.643Z,98660.22
2023-04-07T00:07:17.007Z,98661.13
2023-04-07T00:09:44.006Z,98656.41
2023-04-07T00:12:11.279Z,98654.97
2023-04-07T00:14:38.633Z,98649.84
2023-04-07T00:17:06.121Z,98638.88
2023-04-07T00:19:33.860Z,98646.47
2023-04-07T00:22:01.650Z,98642.84
2023-04-07T00:24:34.299Z,98637.25
2023-04-07T00:27:02.600Z,98637.75
2023-04-07T00:29:29.851Z,98640.88
2023-04-07T00:31:57.188Z,98636.31
2023-04-07T00:34:24.387Z,98627.50
2023-04-07T00:36:54.675Z,98624.53
2023-04-07T00:39:21.681Z,98623.50
2023-04-07T00:41:49.866Z,98621.03
2023-04-07T00:44:17.153Z,98628.28
2023-04-07T00:46:44.468Z,98625.44
2023-04-07T00:49:13.448Z,98623.69
2023-04-07T00:51:41.030Z,98614.66
2023-04-07T00:54:09.809Z,98614.41
2023-04-07T00:56:37.246Z,98610.75
2023-04-07T00:59:04.881Z,98614.94
2023-04-07T01:01:37.816Z,98603.03
2023-04-07T01:04:09.605Z,98611.56
2023-04-07T01:06:40.669Z,98604.19
2023-04-07T01:09:18.864Z,98605.22
2023-04-07T01:11:57.996Z,98597.00
2023-04-07T01:14:25.611Z,98588.34
2023-04-07T01:16:55.754Z,98589.75
2023-04-07T01:19:41.230Z,98588.13
2023-04-07T01:22:14.854Z,98579.78
2023-04-07T01:25:04.163Z,98585.03
2023-04-07T01:27:40.724Z,98584.47
2023-04-07T01:30:10.978Z,98594.56
2023-04-07T01:32:40.611Z,98593.88
2023-04-07T01:35:11.664Z,98591.88
2023-04-07T01:37:39.533Z,98583.34
2023-04-07T01:40:08.438Z,98583.00
2023-04-07T01:42:37.056Z,98575.00
2023-04-07T01:45:05.280Z,98571.50
2023-04-07T01:47:33.630Z,98572.38
2023-04-07T01:50:03.337Z,98574.47
2023-04-07T01:52:30.734Z,98579.03
2023-04-07T01:54:58.099Z,98577.16
2023-04-07T01:57:25.452Z,98575.41
2023-04-07T01:59:53.473Z,98578.06
2023-04-07T02:02:21.286Z,98569.97
2023-04-07T02:04:58.214Z,98578.56
2023-04-07T02:07:33.441Z,98578.84
2023-04-07T02:10:03.024Z,98571.63
2023-04-07T02:12:31.466Z,98570.34
2023-04-07T02:14:59.264Z,98566.31
2023-04-07T02:17:27.640Z,98556.31
2023-04-07T02:19:56.669Z,98557.38
2023-04-07T02:22:23.855Z,98561.34
2023-04-07T02:24:50.928Z,98556.94
2023-04-07T02:27:18.697Z,98555.69
2023-04-07T02:29:45.835Z,98557.94
2023-04-07T02:32:13.360Z,98557.38
2023-04-07T02:34:40.704Z,98557.38
2023-04-07T02:37:07.957Z,98558.06
2023-04-07T02:39:35.037Z,98559.31
2023-04-07T02:42:02.380Z,98556.53
2023-04-07T02:44:29.316Z,98555.75
2023-04-07T02:46:56.591Z,98550.28
2023-04-07T02:49:23.603Z,98549.53
2023-04-07T02:51:51.098Z,98547.47
2023-04-07T02:54:18.182Z,98541.94
2023-04-07T02:56:45.572Z,98540.69
2023-04-07T02:59:12.667Z,98546.00
2023-04-07T03:01:40.776Z,98539.41
2023-04-07T03:04:08.075Z,98542.00
2023-04-07T03:06:35.433Z,98546.91
2023-04-07T03:09:02.547Z,98544.41
2023-04-07T03:11:29.817Z,98543.50
2023-04-07T03:13:56.987Z,98546.03
2023-04-07T03:16:24.323Z,98544.69
2023-04-07T03:18:51.612Z,98544.34
2023-04-07T03:21:18.864Z,98548.09
2023-04-07T03:23:45.972Z,98538.81
2023-04-07T03:26:13.435Z,98533.44
2023-04-07T03:28:40.641Z,98530.56
2023-04-07T03:31:08.157Z,98535.28
2023-04-07T03:33:35.584Z,98531.38
2023-04-07T03:36:02.863Z,98528.47
2023-04-07T03:38:30.079Z,98526.53
2023-04-07T03:40:57.656Z,98525.13
2023-04-07T03:43:24.709Z,98524.84
2023-04-07T03:45:53.622Z,98534.50
2023-04-07T03:48:21.324Z,98535.16
2023-04-07T03:50:48.522Z,98534.09
2023-04-07T03:53:16.855Z,98539.22
2023-04-07T03:55:44.559Z,98539.84
2023-04-07T03:58:12.113Z,98537.88
2023-04-07T04:00:39.713Z,98536.50
2023-04-07T04:03:06.969Z,98541.09
2023-04-07T04:05:34.243Z,98539.22
2023-04-07T04:08:01.376Z,98544.09
2023-04-07T04:10:28.817Z,98546.56
2023-04-07T04:12:55.902Z,98532.69
2023-04-07T04:15:23.409Z,98544.81
2023-04-07T04:17:50.546Z,98542.75
2023-04-07T04:20:18.230Z,98559.06
2023-04-07T04:22:45.281Z,98553.75
2023-04-07T04:25:12.589Z,98553.75
2023-04-07T04:27:39.582Z,98552.38
2023-04-07T04:30:08.196Z,98556.75
2023-04-07T04:32:36.059Z,98563.44
2023-04-07T04:35:03.313Z,98565.94
2023-04-07T04:37:30.750Z,98571.53
2023-04-07T04:39:58.141Z,98563.94
2023-04-07T04:42:27.158Z,98573.63
2023-04-07T04:44:54.630Z,98571.66
2023-04-07T04:47:22.338Z,98573.47
2023-04-07T04:49:49.690Z,98570.97
2023-04-07T04:52:16.696Z,98566.59
2023-04-07T04:54:44.157Z,98569.97
2023-04-07T04:57:11.207Z,98572.56
2023-04-07T04:59:40.122Z,98579.31
2023-04-07T05:02:07.149Z,98579.50
2023-04-07T05:04:34.687Z,98570.13
2023-04-07T05:07:01.969Z,98566.44
2023-04-07T05:09:29.404Z,98562.94
2023-04-07T05:11:57.950Z,98557.56
2023-04-07T05:14:25.446Z,98574.19
2023-04-07T05:16:54.394Z,98580.91
2023-04-07T05:19:21.832Z,98574.31
2023-04-07T05:21:48.897Z,98575.75
2023-04-07T05:24:16.319Z,98569.19
2023-04-07T05:26:43.262Z,98576.75
2023-04-07T05:29:10.598Z,98565.00
2023-04-07T05:31:37.814Z,98566.28
2023-04-07T05:34:05.195Z,98565.97
2023-04-07T05:36:33.326Z,98559.16
2023-04-07T05:39:01.108Z,98553.50
2023-04-07T05:41:28.077Z,98551.81
2023-04-07T05:43:55.567Z,98557.03
2023-04-07T05:46:22.917Z,98553.38
2023-04-07T05:48:50.596Z,98543.16
2023-04-07T05:51:17.774Z,98551.91
2023-04-07T05:53:45.206Z,98549.56
2023-04-07T05:56:12.276Z,98551.38
2023-04-07T05:58:39.941Z,98538.47
2023-04-07T06:01:07.244Z,98528.94
2023-04-07T06:03:34.785Z,98542.66
2023-04-07T06:06:02.099Z,98528.44
2023-04-07T06:08:29.708Z,98527.03
2023-04-07T06:10:56.765Z,98525.53
2023-04-07T06:13:24.298Z,98531.00
2023-04-07T06:15:51.369Z,98542.44
2023-04-07T06:18:18.642Z,98557.97
2023-04-07T06:20:46.493Z,98559.22
2023-04-07T06:23:13.842Z,98568.22
2023-04-07T06:25:40.900Z,98566.06
2023-04-07T06:28:08.252Z,98557.53
2023-04-07T06:30:35.527Z,98548.69
2023-04-07T06:33:02.813Z,98548.69
2023-04-07T06:35:30.105Z,98552.50
2023-04-07T06:37:58.296Z,98554.56
2023-04-07T06:40:25.233Z,98548.03
2023-04-07T06:42:54.760Z,98540.41
2023-04-07T06:45:21.948Z,98545.09
2023-04-07T06:47:49.563Z,98541.91
2023-04-07T06:50:20.919Z,98548.06
2023-04-07T06:52:48.619Z,98547.22
2023-04-07T06:55:15.873Z,98547.50
2023-04-07T06:57:43.466Z,98539.00
2023-04-07T07:00:11.998Z,98547.09
2023-04-07T07:02:39.488Z,98552.31
2023-04-07T07:05:07.128Z,98542.69
2023-04-07T07:07:34.441Z,98544.06
2023-04-07T07:10:01.907Z,98549.34
2023-04-07T07:12:29.540Z,98541.63
2023-04-07T07:14:56.923Z,98545.53
2023-04-07T07:17:24.217Z,98545.59
2023-04-07T07:19:51.417Z,98549.72
2023-04-07T07:22:19.295Z,98550.94
2023-04-07T07:24:46.285Z,98557.34
2023-04-07T07:27:13.720Z,98556.97
2023-04-07T07:29:41.331Z,98553.53
2023-04-07T07:32:08.652Z,98560.91
2023-04-07T07:34:35.979Z,98554.28
2023-04-07T07:37:03.306Z,98556.00
2023-04-07T07:39:30.246Z,98555.19
2023-04-07T07:41:57.850Z,98554.59
2023-04-07T07:44:24.928Z,98556.41
2023-04-07T07:46:52.317Z,98554.63
2023-04-07T07:49:19.784Z,98564.09
2023-04-07T07:51:47.338Z,98559.34
2023-04-07T07:54:14.388Z,98561.38
2023-04-07T07:56:41.647Z,98547.09
2023-04-07T07:59:08.718Z,98552.41
2023-04-07T08:01:36.079Z,98545.97
2023-04-07T08:04:03.593Z,98546.25
2023-04-07T08:06:31.630Z,98548.66
2023-04-07T08:08:58.984Z,98536.00
2023-04-07T08:11:26.427Z,98543.97
2023-04-07T08:13:54.181Z,98535.94
2023-04-07T08:16:22.485Z,98542.13
2023-04-07T08:18:50.117Z,98547.69
2023-04-07T08:21:17.494Z,98535.41
2023-04-07T08:23:44.558Z,98536.44
2023-04-07T08:26:12.163Z,98533.38
2023-04-07T08:28:39.714Z,98528.38
2023-04-07T08:31:07.554Z,98525.25
2023-04-07T08:33:34.701Z,98511.16
2023-04-07T08:36:02.052Z,98521.81
2023-04-07T08:38:29.147Z,98510.91
2023-04-07T08:41:04.254Z,98521.25
2023-04-07T08:43:31.667Z,98523.03
2023-04-07T08:45:59.375Z,98532.56
2023-04-07T08:48:30.589Z,98532.22
2023-04-07T08:50:58.660Z,98521.50
2023-04-07T08:53:29.997Z,98526.44
2023-04-07T08:55:58.366Z,98518.44
2023-04-07T08:58:30.435Z,98515.97
2023-04-07T09:00:58.399Z,98520.78
2023-04-07T09:03:27.191Z,98515.25
2023-04-07T09:05:56.893Z,98513.78
2023-04-07T09:08:23.849Z,98521.47
2023-04-07T09:10:51.473Z,98516.91
2023-04-07T09:13:18.624Z,98504.16
2023-04-07T09:16:14.501Z,98504.00
2023-04-07T09:18:42.869Z,98507.69
2023-04-07T09:21:12.157Z,98510.59
2023-04-07T09:24:42.623Z,98508.78
2023-04-07T09:27:11.339Z,98515.41
2023-04-07T09:29:39.143Z,98524.06
2023-04-07T09:32:06.984Z,98530.59
2023-04-07T09:34:40.387Z,98524.38
2023-04-07T09:37:09.904Z,98526.47
2023-04-07T09:39:53.984Z,98525.84
2023-04-07T09:42:22.649Z,98526.25
2023-04-07T09:44:49.770Z,98524.78
2023-04-07T09:47:18.165Z,98522.09
2023-04-07T09:49:51.507Z,98534.09
2023-04-07T09:52:22.783Z,98537.72
2023-04-07T09:54:51.257Z,98534.19
2023-04-07T09:57:19.433Z,98535.66
2023-04-07T09:59:48.859Z,98534.47
2023-04-07T10:02:16.576Z,98541.88
2023-04-07T10:04:44.250Z,98553.03
2023-04-07T10:07:11.617Z,98545.59
2023-04-07T10:09:38.599Z,98544.25
2023-04-07T10:12:07.172Z,98542.13
2023-04-07T10:14:35.850Z,98539.31
2023-04-07T10:17:04.378Z,98542.31
2023-04-07T10:19:35.277Z,98540.97
2023-04-07T10:22:05.600Z,98550.94
2023-04-07T10:25:07.279Z,98544.38
2023-04-07T10:27:42.988Z,98547.56
2023-04-07T10:30:14.755Z,98550.88
2023-04-07T10:32:50.080Z,98546.19
2023-04-07T10:35:17.785Z,98544.06
2023-04-07T10:38:21.459Z,98561.63
2023-04-07T10:40:48.676Z,98569.41
2023-04-07T10:43:40.106Z,98566.59
2023-04-07T10:46:07.515Z,98579.94
2023-04-07T10:48:35.566Z,98578.28
2023-04-07T10:51:05.514Z,98576.38
2023-04-07T10:53:34.346Z,98580.22
2023-04-07T10:56:01.525Z,98580.28
2023-04-07T10:58:29.865Z,98576.78
2023-04-07T11:01:12.690Z,98566.81
2023-04-07T11:03:42.526Z,98570.13
2023-04-07T11:06:13.991Z,98570.31
2023-04-07T11:08:43.310Z,98567.78
2023-04-07T11:11:12.266Z,98570.88
2023-04-07T11:13:48.125Z,98575.59
2023-04-07T11:16:17.635Z,98565.63
2023-04-07T11:18:46.478Z,98571.50
2023-04-07T11:21:18.569Z,98569.25
2023-04-07T11:23:47.949Z,98572.44
2023-04-07T11:26:16.162Z,98563.81
2023-04-07T11:28:54.983Z,98558.81
2023-04-07T11:31:23.695Z,98560.97
2023-04-07T11:33:54.998Z,98545.31
2023-04-07T11:36:29.328Z,98550.09
2023-04-07T11:39:00.251Z,98550.94
2023-04-07T11:41:30.996Z,98547.09
2023-04-07T11:44:09.958Z,98550.22
2023-04-07T11:46:55.208Z,98546.41
2023-04-07T11:49:26.214Z,98560.22
2023-04-07T11:52:04.447Z,98547.28
2023-04-07T11:54:52.412Z,98549.41
2023-04-07T11:57:27.916Z,98539.53
2023-04-07T12:00:09.261Z,98539.72
2023-04-07T12:02:37.590Z,98535.25
2023-04-07T12:05:07.465Z,98526.53
2023-04-07T12:07:36.743Z,98526.69
2023-04-07T12:10:21.418Z,98527.22
2023-04-07T12:12:49.390Z,98522.50
2023-04-07T12:15:16.972Z,98524.38
2023-04-07T12:17:48.708Z,98505.97
2023-04-07T12:20:16.695Z,98511.09
2023-04-07T12:22:43.758Z,98507.75
2023-04-07T12:25:11.804Z,98504.59
2023-04-07T12:27:43.362Z,98511.47
2023-04-07T12:30:13.320Z,98503.72
2023-04-07T12:32:40.797Z,98511.00
2023-04-07T12:35:09.245Z,98500.84
2023-04-07T12:37:37.720Z,98500.84
2023-04-07T12:40:05.793Z,98499.94
2023-04-07T12:42:33.259Z,98496.59
2023-04-07T12:45:00.816Z,98491.09
2023-04-07T12:47:28.160Z,98489.34
2023-04-07T12:49:55.617Z,98487.81
2023-04-07T12:52:23.119Z,98489.47
2023-04-07T12:54:50.651Z,98489.00
2023-04-07T12:57:17.705Z,98497.66
2023-04-07T12:59:45.485Z,98496.47
2023-04-07T13:02:14.034Z,98510.06
2023-04-07T13:04:43.862Z,98509.31
2023-04-07T13:07:11.071Z,98515.22
2023-04-07T13:09:39.147Z,98519.13
2023-04-07T13:12:07.304Z,98503.28
2023-04-07T13:14:36.096Z,98501.53
2023-04-07T13:17:19.132Z,98499.63
2023-04-07T13:19:47.818Z,98500.59
2023-04-07T13:22:18.174Z,98504.63
2023-04-07T13:24:49.737Z,98498.78
2023-04-07T13:27:18.286Z,98510.72
2023-04-07T13:29:46.462Z,98515.50
2023-04-07T13:32:14.753Z,98518.38
2023-04-07T13:35:08.220Z,98527.53
2023-04-07T13:37:35.361Z,98536.53
2023-04-07T13:40:03.116Z,98534.88
2023-04-07T13:42:30.033Z,98539.44
2023-04-07T13:44:57.608Z,98544.44
2023-04-07T13:47:25.073Z,98548.13
2023-04-07T13:49:52.378Z,98548.56
2023-04-07T13:52:19.613Z,98556.22
2023-04-07T13:54:47.869Z,98560.81
2023-04-07T13:57:21.107Z,98562.38
2023-04-07T13:59:52.246Z,98562.38
2023-04-07T14:02:20.172Z,98558.88
2023-04-07T14:04:48.272Z,98569.50
2023-04-07T14:07:15.769Z,98575.47
2023-04-07T14:09:43.232Z,98578.75
2023-04-07T14:12:10.691Z,98587.16
2023-04-07T14:14:38.177Z,98583.78
2023-04-07T14:17:05.187Z,98587.25
2023-04-07T14:19:33.959Z,98592.81
2023-04-07T14:22:01.306Z,98592.69
2023-04-07T14:24:29.406Z,98589.41
2023-04-07T14:26:56.721Z,98595.03
2023-04-07T14:29:24.303Z,98575.22
2023-04-07T14:31:51.617Z,98577.97
2023-04-07T14:34:19.043Z,98575.38
2023-04-07T14:36:58.979Z,98572.28
2023-04-07T14:39:26.662Z,98579.75
2023-04-07T14:41:54.226Z,98567.41
2023-04-07T14:44:23.795Z,98569.41
2023-04-07T14:46:50.872Z,98570.66
2023-04-07T14:49:18.338Z,98571.03
2023-04-07T14:51:45.573Z,98567.09
2023-04-07T14:54:13.202Z,98561.53
2023-04-07T14:56:47.016Z,98565.56
2023-04-07T14:59:14.644Z,98564.50
2023-04-07T15:01:41.742Z,98567.16
2023-04-07T15:04:09.295Z,98563.88
2023-04-07T15:06:36.346Z,98566.69
2023-04-07T15:09:03.939Z,98571.31
2023-04-07T15:11:30.980Z,98574.81
2023-04-07T15:13:58.667Z,98572.19
2023-04-07T15:16:26.340Z,98569.13
2023-04-07T15:18:54.173Z,98564.91
2023-04-07T15:21:21.135Z,98560.25
2023-04-07T15:23:48.861Z,98566.50
2023-04-07T15:26:16.243Z,98575.91
2023-04-07T15:28:43.801Z,98571.09
2023-04-07T15:31:11.011Z,98568.78
2023-04-07T15:33:39.769Z,98574.53
2023-04-07T15:36:08.852Z,98579.00
2023-04-07T15:38:36.783Z,98579.59
2023-04-07T15:41:04.417Z,98575.28
2023-04-07T15:43:31.793Z,98573.03
2023-04-07T15:45:59.194Z,98574.81
2023-04-07T15:48:26.837Z,98574.28
2023-04-07T15:50:54.247Z,98577.91
2023-04-07T15:53:21.967Z,98574.63
2023-04-07T15:55:49.185Z,98585.94
2023-04-07T15:58:16.693Z,98581.50
2023-04-07T16:00:44.088Z,98580.88
2023-04-07T16:03:11.505Z,98593.19
2023-04-07T16:05:39.195Z,98588.06
2023-04-07T16:08:06.731Z,98581.91
2023-04-07T16:10:33.913Z,98585.03
2023-04-07T16:13:01.404Z,98591.50
2023-04-07T16:15:39.504Z,98592.66
2023-04-07T16:18:10.318Z,98596.03
2023-04-07T16:20:37.460Z,98594.22
2023-04-07T16:23:05.004Z,98595.72
2023-04-07T16:25:34.814Z,98593.78
2023-04-07T16:28:02.103Z,98601.69
2023-04-07T16:30:29.209Z,98597.38
2023-04-07T16:32:56.719Z,98598.81
2023-04-07T16:35:24.522Z,98594.91
2023-04-07T16:37:54.787Z,98602.31
2023-04-07T16:40:22.317Z,98599.16
2023-04-07T16:42:49.744Z,98596.50
2023-04-07T16:45:16.798Z,98604.53
2023-04-07T16:47:44.865Z,98603.28
2023-04-07T16:50:12.061Z,98601.34
2023-04-07T16:52:40.528Z,98615.19
2023-04-07T16:55:08.070Z,98613.78
2023-04-07T16:57:35.945Z,98615.28
2023-04-07T17:00:04.371Z,98626.72
2023-04-07T17:02:32.090Z,98627.81
2023-04-07T17:04:59.793Z,98641.34
2023-04-07T17:07:29.472Z,98647.31
2023-04-07T17:09:56.935Z,98642.50
2023-04-07T17:12:24.650Z,98645.47
2023-04-07T17:14:51.560Z,98651.03
2023-04-07T17:17:21.823Z,98648.63
2023-04-07T17:19:49.409Z,98649.84
2023-04-07T17:22:17.758Z,98653.34
2023-04-07T17:24:44.894Z,98654.25
2023-04-07T17:27:12.305Z,98651.13
2023-04-07T17:29:39.574Z,98659.31
2023-04-07T17:32:08.072Z,98666.28
2023-04-07T17:34:36.182Z,98668.94
2023-04-07T17:37:03.566Z,98664.66
2023-04-07T17:39:30.543Z,98662.72
2023-04-07T17:41:58.591Z,98674.91
2023-04-07T17:44:25.813Z,98670.25
2023-04-07T17:46:54.077Z,98672.38
2023-04-07T17:49:21.621Z,98676.16
2023-04-07T17:51:49.070Z,98672.00
2023-04-07T17:54:16.386Z,98679.34
2023-04-07T17:56:43.955Z,98682.00
2023-04-07T17:59:11.016Z,98675.88
2023-04-07T18:01:38.929Z,98673.97
2023-04-07T18:04:06.810Z,98680.72
2023-04-07T18:06:35.133Z,98680.25
2023-04-07T18:09:02.188Z,98682.44
2023-04-07T18:11:29.900Z,98690.72
2023-04-07T18:13:56.869Z,98688.66
2023-04-07T18:16:24.506Z,98688.19
2023-04-07T18:18:52.669Z,98696.22
2023-04-07T18:21:20.011Z,98691.00
2023-04-07T18:23:47.156Z,98695.97
2023-04-07T18:26:14.973Z,98696.63
2023-04-07T18:28:41.997Z,98701.34
2023-04-07T18:31:10.120Z,98707.03
2023-04-07T18:33:37.473Z,98715.38
2023-04-07T18:36:07.448Z,98716.66
2023-04-07T18:38:36.228Z,98722.16
2023-04-07T18:41:04.380Z,98711.69
2023-04-07T18:43:31.592Z,98719.09
2023-04-07T18:45:59.160Z,98712.97
2023-04-07T18:48:26.608Z,98719.56
2023-04-07T18:50:55.273Z,98719.25
2023-04-07T18:53:25.315Z,98709.00
2023-04-07T18:55:53.476Z,98709.84
2023-04-07T18:58:21.114Z,98707.78
2023-04-07T19:00:53.448Z,98710.84
2023-04-07T19:03:21.993Z,98722.47
2023-04-07T19:05:52.290Z,98712.97
2023-04-07T19:08:19.701Z,98711.16
2023-04-07T19:10:48.884Z,98714.06
2023-04-07T19:13:18.538Z,98716.38
2023-04-07T19:15:46.655Z,98718.63
2023-04-07T19:18:14.353Z,98716.50
2023-04-07T19:20:41.913Z,98720.78
2023-04-07T19:23:11.121Z,98716.16
2023-04-07T19:25:39.942Z,98717.50
2023-04-07T19:28:07.187Z,98713.13
2023-04-07T19:30:34.707Z,98715.75
2023-04-07T19:33:02.135Z,98717.28
2023-04-07T19:35:41.600Z,98714.97
2023-04-07T19:38:08.803Z,98720.47
2023-04-07T19:40:37.024Z,98719.88
2023-04-07T19:43:04.473Z,98720.78
2023-04-07T19:45:32.296Z,98725.59
2023-04-07T19:48:00.184Z,98728.91
2023-04-07T19:50:28.570Z,98729.38
2023-04-07T19:52:55.867Z,98720.31
2023-04-07T19:55:23.578Z,98720.47
2023-04-07T19:57:50.661Z,98724.75
2023-04-07T20:00:18.755Z,98724.16
2023-04-07T20:02:46.009Z,98729.22
2023-04-07T20:05:13.570Z,98737.16
2023-04-07T20:07:41.846Z,98726.16
2023-04-07T20:10:09.263Z,98727.34
2023-04-07T20:12:36.280Z,98728.06
2023-04-07T20:15:04.972Z,98727.75
2023-04-07T20:17:32.711Z,98723.38
2023-04-07T20:20:00.171Z,98720.34
2023-04-07T20:22:27.322Z,98728.06
2023-04-07T20:24:54.622Z,98723.97
2023-04-07T20:27:21.658Z,98720.44
2023-04-07T20:29:49.515Z,98726.28
2023-04-07T20:32:16.625Z,98728.22
2023-04-07T20:34:46.127Z,98728.03
2023-04-07T20:37:13.470Z,98734.38
2023-04-07T20:39:40.820Z,98734.06
2023-04-07T20:42:07.976Z,98736.94
2023-04-07T20:44:35.602Z,98733.31
2023-04-07T20:47:09.957Z,98733.00
2023-04-07T20:49:39.797Z,98741.00
2023-04-07T20:52:07.760Z,98739.59
2023-04-07T20:54:35.729Z,98730.44
2023-04-07T20:57:03.064Z,98739.69
2023-04-07T20:59:30.478Z,98740.56
2023-04-07T21:01:57.696Z,98733.66
2023-04-07T21:04:25.865Z,98730.13
2023-04-07T21:06:53.113Z,98729.88
2023-04-07T21:09:20.671Z,98726.09
2023-04-07T21:11:47.788Z,98729.31
2023-04-07T21:14:15.186Z,98729.88
2023-04-07T21:16:42.357Z,98725.25
2023-04-07T21:19:09.928Z,98734.50
2023-04-07T21:21:36.880Z,98736.44
2023-04-07T21:24:04.338Z,98734.69
2023-04-07T21:26:31.667Z,98736.69
2023-04-07T21:28:58.979Z,98736.84
2023-04-07T21:31:26.878Z,98728.94
2023-04-07T21:33:54.399Z,98743.41
2023-04-07T21:36:21.644Z,98746.50
2023-04-07T21:38:50.340Z,98744.25
2023-04-07T21:41:18.337Z,98739.28
2023-04-07T21:43:46.150Z,98736.34
2023-04-07T21:46:14.417Z,98737.41
2023-04-07T21:48:42.507Z,98741.84
2023-04-07T21:51:09.723Z,98747.28
2023-04-07T21:53:38.695Z,98751.09
2023-04-07T21:56:09.254Z,98752.03
2023-04-07T21:58:37.526Z,98745.06
2023-04-07T22:01:05.189Z,98746.38
2023-04-07T22:03:33.164Z,98747.38
2023-04-07T22:06:01.344Z,98749.03
2023-04-07T22:08:28.659Z,98755.47
2023-04-07T22:10:56.070Z,98751.16
2023-04-07T22:13:23.313Z,98747.38
2023-04-07T22:15:50.717Z,98753.47
2023-04-07T22:18:19.702Z,98745.63
2023-04-07T22:20:47.845Z,98742.75
2023-04-07T22:23:15.149Z,98745.38
2023-04-07T22:25:42.344Z,98740.28
2023-04-07T22:28:09.537Z,98743.94
2023-04-07T22:30:36.698Z,98741.13
2023-04-07T22:33:05.274Z,98743.28
2023-04-07T22:35:32.535Z,98746.31
2023-04-07T22:37:59.869Z,98756.81
2023-04-07T22:40:26.973Z,98753.31
2023-04-07T22:42:54.159Z,98752.53
2023-04-07T22:45:21.272Z,98760.66
2023-04-07T22:47:48.680Z,98761.78
2023-04-07T22:50:15.818Z,98765.00
2023-04-07T22:52:43.001Z,98758.25
2023-04-07T22:55:10.234Z,98764.00
2023-04-07T22:57:37.518Z,98762.91
2023-04-07T23:00:05.345Z,98769.41
2023-04-07T23:02:33.175Z,98762.41
2023-04-07T23:05:00.765Z,98758.13
2023-04-07T23:07:28.098Z,98756.44
2023-04-07T23:09:55.561Z,98772.66
2023-04-07T23:12:22.794Z,98769.69
2023-04-07T23:14:49.793Z,98770.06
2023-04-07T23:17:17.157Z,98769.84
2023-04-07T23:19:44.061Z,98769.03
2023-04-07T23:22:12.525Z,98769.13
2023-04-07T23:24:39.682Z,98765.09
2023-04-07T23:27:06.916Z,98769.03
2023-04-07T23:29:33.869Z,98762.56
2023-04-07T23:32:01.640Z,98768.47
2023-04-07T23:34:28.667Z,98774.78
2023-04-07T23:36:55.992Z,98771.59
2023-04-07T23:39:23.190Z,98779.31
2023-04-07T23:41:50.399Z,98776.19
2023-04-07T23:44:17.470Z,98774.38
2023-04-07T23:46:45.008Z,98764.97
2023-04-07T23:49:12.035Z,98776.00
2023-04-07T23:51:39.696Z,98779.44
2023-04-07T23:54:07.219Z,98771.84
2023-04-07T23:56:34.612Z,98774.38
2023-04-07T23:59:01.787Z,98776.78
